Time;durP1;ratioP1;P1;durP2;ratioP2;P2;SDS_P1;SDS_P2;PMS_P1;PMS_P2;Temp;Humidity;BMP_temperature;BMP_pressure;BME280_temperature;BME280_humidity;BME280_pressure;Samples;Min_cycle;Max_cycle;Signal;HPM_P1;HPM_P2
2022/03/24 00:01:47;;;;;;;50.60;34.58;;;7.00;99.90;;;;;;4993875;28;20473;-85
2022/03/24 00:04:12;;;;;;;46.85;33.25;;;6.90;99.90;;;;;;4994498;28;20162;-85
2022/03/24 00:06:38;;;;;;;41.38;30.83;;;6.90;99.90;;;;;;5006305;28;20041;-85
2022/03/24 00:09:04;;;;;;;45.25;32.25;;;6.80;99.90;;;;;;5004579;28;20049;-84
2022/03/24 00:11:30;;;;;;;40.33;29.95;;;6.70;99.90;;;;;;4993473;28;20548;-85
2022/03/24 00:13:56;;;;;;;46.67;31.73;;;6.60;99.90;;;;;;4994555;28;20118;-85
2022/03/24 00:16:22;;;;;;;47.50;31.98;;;6.70;99.90;;;;;;4994850;28;20467;-85
2022/03/24 00:18:48;;;;;;;44.80;32.67;;;6.70;99.90;;;;;;4993612;28;20046;-85
2022/03/24 00:21:16;;;;;;;42.72;31.13;;;6.70;99.90;;;;;;5010978;28;20068;-85
2022/03/24 00:23:42;;;;;;;38.97;28.77;;;6.70;99.90;;;;;;5012858;28;20054;-85
2022/03/24 00:26:07;;;;;;;42.00;30.17;;;6.70;99.90;;;;;;5011524;28;20049;-85
2022/03/24 00:28:33;;;;;;;45.35;31.33;;;6.70;99.90;;;;;;5004741;28;20392;-85
2022/03/24 00:30:58;;;;;;;46.70;31.33;;;6.70;99.90;;;;;;5013157;28;20049;-85
2022/03/24 00:33:24;;;;;;;46.22;31.45;;;6.70;99.90;;;;;;5013072;28;20125;-85
2022/03/24 00:35:50;;;;;;;44.13;30.25;;;6.70;99.90;;;;;;4994424;28;20042;-86
2022/03/24 00:38:16;;;;;;;35.70;26.92;;;6.80;99.90;;;;;;5009730;28;20416;-86
2022/03/24 00:40:43;;;;;;;41.25;28.00;;;6.70;99.90;;;;;;4993468;28;20050;-85
2022/03/24 00:43:08;;;;;;;35.28;26.65;;;6.60;99.90;;;;;;4992650;28;20078;-85
2022/03/24 00:45:34;;;;;;;36.83;26.08;;;6.60;99.90;;;;;;4993397;28;20085;-85
2022/03/24 00:48:00;;;;;;;42.17;30.15;;;6.50;99.90;;;;;;4992583;28;20052;-84
2022/03/24 00:50:26;;;;;;;39.85;29.00;;;6.50;99.90;;;;;;4994030;28;20081;-85
2022/03/24 00:52:51;;;;;;;35.92;27.58;;;6.50;99.90;;;;;;4991583;28;20121;-86
2022/03/24 00:55:19;;;;;;;35.28;26.83;;;6.50;99.90;;;;;;4992851;28;20089;-85
2022/03/24 00:57:55;;;;;;;36.03;26.00;;;6.40;99.90;;;;;;5009114;28;20089;-85
2022/03/24 01:00:25;;;;;;;40.90;29.73;;;6.30;99.90;;;;;;4993976;28;20078;-85
2022/03/24 01:02:52;;;;;;;44.65;31.77;;;6.20;99.90;;;;;;4992603;28;20069;-85
2022/03/24 01:05:28;;;;;;;41.13;31.20;;;6.00;99.90;;;;;;5002794;28;20045;-85
2022/03/24 01:07:55;;;;;;;44.60;31.55;;;5.90;99.90;;;;;;4993691;28;20121;-85
2022/03/24 01:10:21;;;;;;;52.90;35.80;;;5.70;99.90;;;;;;4991742;28;20058;-85
2022/03/24 01:12:48;;;;;;;52.65;36.45;;;5.60;99.90;;;;;;4993770;28;20482;-86
2022/03/24 01:15:18;;;;;;;52.28;35.85;;;5.50;99.90;;;;;;4992441;28;20038;-86
2022/03/24 01:17:44;;;;;;;49.08;34.28;;;5.50;99.90;;;;;;4997763;28;20121;-85
2022/03/24 01:20:12;;;;;;;49.10;33.95;;;5.50;99.90;;;;;;5013302;28;20030;-86
2022/03/24 01:22:38;;;;;;;44.97;32.50;;;5.60;99.90;;;;;;5013268;28;20407;-86
2022/03/24 01:25:06;;;;;;;44.40;31.02;;;5.60;99.90;;;;;;5019827;28;20034;-86
2022/03/24 01:27:32;;;;;;;43.65;32.10;;;5.60;99.90;;;;;;4991391;28;20054;-86
2022/03/24 01:29:59;;;;;;;42.75;31.02;;;5.60;99.90;;;;;;4991789;28;20046;-85
2022/03/24 01:32:26;;;;;;;47.35;33.03;;;5.50;99.90;;;;;;5001786;28;20404;-85
2022/03/24 01:34:53;;;;;;;44.60;29.40;;;5.50;99.90;;;;;;4995352;28;20045;-85
2022/03/24 01:37:19;;;;;;;45.15;31.70;;;5.40;99.90;;;;;;5011728;28;20129;-86
2022/03/24 01:39:44;;;;;;;51.35;34.35;;;5.50;99.90;;;;;;4997582;28;20117;-86
2022/03/24 01:42:10;;;;;;;45.08;30.30;;;5.50;99.90;;;;;;4991979;28;20088;-85
2022/03/24 01:44:36;;;;;;;48.42;32.25;;;5.50;99.90;;;;;;4992368;28;20068;-85
2022/03/24 01:47:09;;;;;;;45.42;31.17;;;5.50;99.90;;;;;;4995124;28;20038;-86
2022/03/24 01:49:40;;;;;;;49.85;33.33;;;5.40;99.90;;;;;;4993171;28;20097;-86
2022/03/24 01:52:11;;;;;;;46.83;32.15;;;5.40;99.90;;;;;;5006046;28;20041;-85
2022/03/24 01:54:40;;;;;;;56.58;36.28;;;5.50;99.90;;;;;;5009141;28;20068;-85
2022/03/24 01:57:08;;;;;;;45.67;32.80;;;5.40;99.90;;;;;;4992662;28;20052;-85
2022/03/24 01:59:37;;;;;;;49.88;33.50;;;5.40;99.90;;;;;;4992983;28;20034;-86
2022/03/24 02:02:03;;;;;;;46.88;33.53;;;5.30;99.90;;;;;;4992911;28;20041;-85
2022/03/24 02:04:30;;;;;;;48.95;33.85;;;5.30;99.90;;;;;;4991471;28;20045;-86
2022/03/24 02:06:56;;;;;;;46.00;32.92;;;5.40;99.90;;;;;;4991492;28;20046;-85
2022/03/24 02:09:22;;;;;;;44.10;31.88;;;5.40;99.90;;;;;;4992449;28;20073;-85
2022/03/24 02:11:48;;;;;;;44.17;31.42;;;5.40;99.90;;;;;;4991456;28;20081;-84
2022/03/24 02:14:14;;;;;;;45.17;30.83;;;5.30;99.90;;;;;;4992083;28;20081;-85
2022/03/24 02:16:41;;;;;;;44.42;30.88;;;5.40;99.90;;;;;;5012264;28;20037;-85
2022/03/24 02:19:24;;;;;;;46.28;31.80;;;5.30;99.90;;;;;;5011162;28;20046;-85
2022/03/24 02:21:53;;;;;;;40.88;29.45;;;5.30;99.90;;;;;;5011134;28;20407;-85
2022/03/24 02:24:20;;;;;;;45.63;32.60;;;5.30;99.90;;;;;;5008205;28;20487;-85
2022/03/24 02:26:47;;;;;;;44.08;31.52;;;5.30;99.90;;;;;;4992402;28;20531;-85
2022/03/24 02:29:15;;;;;;;41.20;28.30;;;5.40;99.90;;;;;;4990913;28;20047;-85
2022/03/24 02:31:44;;;;;;;44.38;30.25;;;5.20;99.90;;;;;;4991238;28;20054;-85
2022/03/24 02:37:05;;;;;;;45.80;31.10;;;4.90;99.90;;;;;;5011996;28;20041;-86
2022/03/24 02:39:31;;;;;;;46.25;32.03;;;4.70;99.90;;;;;;5010668;28;20048;-86
2022/03/24 02:41:59;;;;;;;44.83;30.80;;;4.60;99.90;;;;;;4996012;28;20459;-86
2022/03/24 02:44:27;;;;;;;45.78;30.13;;;4.80;99.90;;;;;;5010464;28;20053;-85
2022/03/24 02:46:55;;;;;;;46.97;31.75;;;4.70;99.90;;;;;;5010689;28;20049;-86
2022/03/24 02:49:22;;;;;;;46.30;31.67;;;4.70;99.90;;;;;;4991079;28;20054;-86
2022/03/24 02:51:52;;;;;;;46.85;31.30;;;4.70;99.90;;;;;;4993520;28;20033;-86
2022/03/24 02:54:21;;;;;;;44.95;31.50;;;4.80;99.90;;;;;;4991632;28;20037;-86
2022/03/24 02:56:48;;;;;;;46.05;30.60;;;4.90;99.90;;;;;;4992112;28;20408;-85
2022/03/24 02:59:15;;;;;;;42.75;30.92;;;4.80;99.90;;;;;;4990848;28;20049;-85
2022/03/24 03:01:45;;;;;;;42.55;29.90;;;4.80;99.90;;;;;;4990671;28;20057;-85
2022/03/24 03:04:12;;;;;;;41.38;28.10;;;4.80;99.90;;;;;;4992128;28;20038;-85
2022/03/24 03:06:38;;;;;;;38.80;27.45;;;4.80;99.90;;;;;;4992072;28;20121;-85
2022/03/24 03:09:05;;;;;;;39.08;26.90;;;4.60;99.90;;;;;;4990812;28;20125;-85
2022/03/24 03:11:31;;;;;;;39.30;28.17;;;4.70;99.90;;;;;;4990849;28;20774;-85
2022/03/24 03:13:58;;;;;;;38.92;27.77;;;4.60;99.90;;;;;;4994333;28;20046;-85
2022/03/24 03:16:25;;;;;;;44.28;30.40;;;4.60;99.90;;;;;;4990761;28;20488;-86
2022/03/24 03:18:51;;;;;;;45.05;30.15;;;4.60;99.90;;;;;;4990610;28;20042;-85
2022/03/24 03:21:17;;;;;;;45.60;30.63;;;4.60;99.90;;;;;;4991960;28;20170;-85
2022/03/24 03:23:43;;;;;;;46.80;30.75;;;4.70;99.90;;;;;;5002055;28;20138;-85
2022/03/24 03:26:10;;;;;;;45.47;30.05;;;4.50;99.90;;;;;;4991937;28;20117;-85
2022/03/24 03:28:36;;;;;;;46.63;30.60;;;4.50;99.90;;;;;;4990346;28;20081;-85
2022/03/24 03:31:02;;;;;;;47.55;31.77;;;4.50;99.90;;;;;;4991652;28;20492;-85
2022/03/24 03:33:29;;;;;;;48.05;31.20;;;4.50;99.90;;;;;;4994538;28;20400;-85
2022/03/24 03:35:55;;;;;;;46.00;31.38;;;4.50;99.90;;;;;;5004900;28;20089;-85
2022/03/24 03:38:21;;;;;;;48.20;30.15;;;4.50;99.90;;;;;;4994095;28;20057;-85
2022/03/24 03:40:47;;;;;;;35.28;25.70;;;4.60;99.90;;;;;;4994213;28;20042;-85
2022/03/24 03:43:14;;;;;;;37.83;26.27;;;4.40;99.90;;;;;;4994353;28;20503;-85
2022/03/24 03:45:44;;;;;;;40.58;27.85;;;4.20;99.90;;;;;;4993974;28;20042;-85
2022/03/24 03:48:11;;;;;;;43.33;28.02;;;4.20;99.90;;;;;;4994214;28;20046;-84
2022/03/24 03:50:38;;;;;;;43.60;28.92;;;4.40;99.90;;;;;;4994275;28;20146;-86
2022/03/24 03:53:03;;;;;;;44.10;29.80;;;4.20;99.90;;;;;;4994191;28;20042;-85
2022/03/24 03:55:29;;;;;;;49.90;31.23;;;4.20;99.90;;;;;;4993896;28;20046;-85
2022/03/24 03:57:55;;;;;;;49.80;32.00;;;4.20;99.90;;;;;;4993736;28;20057;-85
2022/03/24 04:03:06;;;;;;;44.35;29.27;;;4.30;99.90;;;;;;4995247;28;20046;-85
2022/03/24 04:05:33;;;;;;;40.90;27.83;;;4.20;99.90;;;;;;4993644;28;20384;-85
2022/03/24 04:08:00;;;;;;;46.40;31.45;;;4.10;99.90;;;;;;4993619;28;20046;-85
2022/03/24 04:10:27;;;;;;;54.00;35.10;;;4.00;99.90;;;;;;4993558;28;20050;-84
2022/03/24 04:12:54;;;;;;;52.80;35.42;;;4.20;99.90;;;;;;4995105;28;20069;-85
2022/03/24 04:15:20;;;;;;;52.00;34.05;;;4.10;99.90;;;;;;4994770;28;20045;-85
2022/03/24 04:17:45;;;;;;;47.28;32.80;;;4.10;99.90;;;;;;4994671;28;20042;-85
2022/03/24 04:20:13;;;;;;;50.28;33.45;;;4.10;99.90;;;;;;4993357;28;20050;-84
2022/03/24 04:22:39;;;;;;;55.05;34.75;;;4.10;99.90;;;;;;4995090;28;20105;-85
2022/03/24 04:25:05;;;;;;;53.30;33.78;;;4.10;99.90;;;;;;4993225;28;20046;-85
2022/03/24 04:27:30;;;;;;;46.38;31.33;;;4.20;99.90;;;;;;4998236;28;20451;-86
2022/03/24 04:29:56;;;;;;;52.83;34.25;;;4.10;99.90;;;;;;5012898;28;20125;-85
2022/03/24 04:32:22;;;;;;;50.15;32.05;;;4.10;99.90;;;;;;5011907;28;20038;-85
2022/03/24 04:34:47;;;;;;;50.47;32.40;;;4.10;99.90;;;;;;5004441;28;20199;-85
2022/03/24 04:37:14;;;;;;;47.97;30.83;;;4.00;99.90;;;;;;5012794;28;20045;-85
2022/03/24 04:39:40;;;;;;;52.47;32.63;;;4.10;99.90;;;;;;5013932;28;20053;-85
2022/03/24 04:42:06;;;;;;;48.83;30.95;;;3.90;99.90;;;;;;5002454;28;20612;-85
2022/03/24 04:44:33;;;;;;;52.92;34.55;;;3.90;99.90;;;;;;4993876;28;20049;-85
2022/03/24 04:46:59;;;;;;;49.03;31.67;;;3.80;99.90;;;;;;4994287;28;20038;-85
2022/03/24 04:49:26;;;;;;;52.58;33.05;;;4.00;99.90;;;;;;4992843;28;20042;-85
2022/03/24 04:51:52;;;;;;;50.72;32.33;;;3.90;99.90;;;;;;4995538;28;20122;-85
2022/03/24 04:54:18;;;;;;;48.45;31.85;;;3.80;99.90;;;;;;4992538;28;20156;-85
2022/03/24 04:56:44;;;;;;;48.08;29.48;;;3.70;99.90;;;;;;5001133;28;20041;-86
2022/03/24 04:59:10;;;;;;;45.90;31.08;;;3.70;99.90;;;;;;5013559;28;20042;-85
2022/03/24 05:01:35;;;;;;;46.70;29.25;;;3.70;99.90;;;;;;5011492;28;20042;-85
2022/03/24 05:04:01;;;;;;;43.35;27.58;;;3.70;99.90;;;;;;5013266;28;20045;-86
2022/03/24 05:06:26;;;;;;;42.35;27.23;;;3.60;99.90;;;;;;4974566;28;20041;-86
2022/03/24 05:08:52;;;;;;;44.22;28.23;;;3.90;99.90;;;;;;4979527;28;20078;-85
2022/03/24 05:11:17;;;;;;;43.40;28.30;;;3.90;99.90;;;;;;5004139;28;20034;-85
2022/03/24 05:13:45;;;;;;;46.35;28.42;;;3.80;99.90;;;;;;4993776;28;20481;-85
2022/03/24 05:16:11;;;;;;;41.33;27.33;;;3.90;99.90;;;;;;4993839;28;20497;-85
2022/03/24 05:18:38;;;;;;;46.33;28.05;;;3.70;99.90;;;;;;4993675;28;20045;-85
2022/03/24 05:21:04;;;;;;;44.00;29.48;;;3.70;99.90;;;;;;4993531;28;20416;-85
2022/03/24 05:23:30;;;;;;;38.50;25.85;;;3.70;99.90;;;;;;5003614;28;20112;-85
2022/03/24 05:25:56;;;;;;;37.25;24.35;;;3.80;99.90;;;;;;5011958;28;20389;-85
2022/03/24 05:28:23;;;;;;;43.55;29.33;;;3.60;99.90;;;;;;5006092;28;20500;-85
2022/03/24 05:30:49;;;;;;;48.72;31.15;;;3.60;99.90;;;;;;4996821;28;20492;-85
2022/03/24 05:33:15;;;;;;;48.65;30.08;;;3.40;99.90;;;;;;5011829;28;20079;-86
2022/03/24 05:35:41;;;;;;;48.13;31.23;;;3.40;99.90;;;;;;5006538;28;20042;-85
2022/03/24 05:38:07;;;;;;;49.33;31.55;;;3.70;99.90;;;;;;4994066;28;20385;-85
2022/03/24 05:40:35;;;;;;;54.13;32.83;;;3.50;99.90;;;;;;4997068;28;20511;-85
2022/03/24 05:43:01;;;;;;;50.40;31.88;;;3.60;99.90;;;;;;5012821;28;20443;-85
2022/03/24 05:45:26;;;;;;;49.67;30.73;;;3.70;99.90;;;;;;5009528;28;20042;-85
2022/03/24 05:47:52;;;;;;;47.72;31.35;;;3.50;99.90;;;;;;4997932;28;20092;-85
2022/03/24 05:50:18;;;;;;;52.35;32.78;;;3.80;99.90;;;;;;5011786;28;20064;-85
2022/03/24 05:52:45;;;;;;;50.28;31.70;;;3.60;99.90;;;;;;5011298;28;20042;-85
2022/03/24 05:55:12;;;;;;;47.67;31.85;;;3.60;99.90;;;;;;5012102;28;20515;-85
2022/03/24 05:57:39;;;;;;;54.03;33.75;;;3.80;99.90;;;;;;5008004;28;20114;-85
2022/03/24 06:00:06;;;;;;;48.58;31.38;;;3.70;99.90;;;;;;4998309;28;20030;-85
2022/03/24 06:02:33;;;;;;;53.05;32.88;;;3.70;99.90;;;;;;4992651;28;20056;-85
2022/03/24 06:04:59;;;;;;;45.72;30.48;;;3.90;99.90;;;;;;4992707;28;20046;-85
2022/03/24 06:07:25;;;;;;;54.58;31.45;;;3.70;99.90;;;;;;4990609;28;20045;-85
2022/03/24 06:09:51;;;;;;;48.28;31.30;;;3.70;99.90;;;;;;4990025;28;20047;-85
2022/03/24 06:12:17;;;;;;;53.92;32.55;;;3.80;99.90;;;;;;4999004;28;20690;-85
2022/03/24 06:14:43;;;;;;;54.55;33.85;;;3.90;99.90;;;;;;5000331;28;20527;-85
2022/03/24 06:17:09;;;;;;;57.90;34.58;;;4.10;99.90;;;;;;4997566;28;20121;-85
2022/03/24 06:19:35;;;;;;;57.65;36.47;;;4.10;99.90;;;;;;4993329;28;20093;-85
2022/03/24 06:22:05;;;;;;;61.92;38.72;;;4.10;99.90;;;;;;4999097;28;20094;-85
2022/03/24 06:24:31;;;;;;;62.95;39.35;;;4.20;99.90;;;;;;5008186;28;20053;-85
2022/03/24 06:26:57;;;;;;;49.90;34.15;;;4.20;99.90;;;;;;5009850;28;20534;-85
2022/03/24 06:29:23;;;;;;;62.15;38.60;;;4.20;99.90;;;;;;5010832;28;20096;-86
2022/03/24 06:31:49;;;;;;;69.57;41.70;;;4.50;99.90;;;;;;4996968;28;20042;-86
2022/03/24 06:34:15;;;;;;;66.85;40.28;;;4.30;99.90;;;;;;4992938;28;20038;-85
2022/03/24 06:36:41;;;;;;;62.38;37.92;;;4.30;99.90;;;;;;4997642;28;20109;-85
2022/03/24 06:39:07;;;;;;;66.63;40.97;;;4.30;99.90;;;;;;4991719;28;20556;-86
2022/03/24 06:41:33;;;;;;;64.72;39.03;;;4.40;99.90;;;;;;4992585;28;20062;-86
2022/03/24 06:43:59;;;;;;;67.93;41.97;;;4.50;99.90;;;;;;4991691;28;20077;-86
2022/03/24 06:46:26;;;;;;;61.55;37.50;;;4.60;99.90;;;;;;4998939;28;20041;-86
2022/03/24 06:48:52;;;;;;;58.47;35.47;;;4.80;99.90;;;;;;4991694;28;20050;-86
2022/03/24 06:51:18;;;;;;;59.45;35.08;;;4.90;99.90;;;;;;4999762;28;20041;-86
2022/03/24 06:53:44;;;;;;;59.08;36.65;;;5.00;99.90;;;;;;5009195;28;20511;-85
2022/03/24 06:56:10;;;;;;;64.95;39.83;;;5.20;99.90;;;;;;5010648;28;20106;-85
2022/03/24 06:58:35;;;;;;;64.00;39.13;;;5.20;99.90;;;;;;5008360;28;20096;-85
2022/03/24 07:01:03;;;;;;;63.83;38.90;;;5.30;99.90;;;;;;4993149;28;20047;-85
2022/03/24 07:03:28;;;;;;;58.63;37.85;;;5.40;99.90;;;;;;5001833;28;20065;-86
2022/03/24 07:05:54;;;;;;;65.38;38.65;;;5.60;99.90;;;;;;5010279;28;20038;-85
2022/03/24 07:08:19;;;;;;;66.53;39.92;;;5.70;99.90;;;;;;5015196;28;20451;-86
2022/03/24 07:10:46;;;;;;;57.45;37.60;;;5.90;99.90;;;;;;5011292;28;20511;-86
2022/03/24 07:13:11;;;;;;;71.03;44.55;;;6.00;99.90;;;;;;4997556;28;20508;-86
2022/03/24 07:15:37;;;;;;;75.40;44.03;;;6.10;99.90;;;;;;4995084;28;20049;-84
2022/03/24 07:18:03;;;;;;;80.32;49.90;;;6.30;99.90;;;;;;4996257;28;20068;-86
2022/03/24 07:20:28;;;;;;;83.85;49.03;;;6.50;99.90;;;;;;4997156;28;20124;-86
2022/03/24 07:22:57;;;;;;;77.22;50.22;;;6.60;99.90;;;;;;4997781;28;20563;-86
2022/03/24 07:25:24;;;;;;;79.05;49.53;;;6.80;99.90;;;;;;5004513;28;20675;-86
2022/03/24 07:27:50;;;;;;;81.15;51.50;;;6.90;99.90;;;;;;5006571;28;20079;-86
2022/03/24 07:30:16;;;;;;;82.55;49.35;;;7.00;99.90;;;;;;5002565;28;20423;-86
2022/03/24 07:32:43;;;;;;;82.95;51.83;;;7.10;99.90;;;;;;5001298;28;20050;-86
2022/03/24 07:35:09;;;;;;;81.40;51.58;;;7.30;99.90;;;;;;4994194;28;20057;-86
2022/03/24 07:37:35;;;;;;;77.90;51.33;;;7.40;99.90;;;;;;4995292;28;20026;-86
2022/03/24 07:40:02;;;;;;;84.88;52.53;;;7.60;99.90;;;;;;5000426;28;20523;-86
2022/03/24 07:42:28;;;;;;;84.85;52.22;;;7.70;99.90;;;;;;5017466;28;20052;-86
2022/03/24 07:44:54;;;;;;;81.07;50.85;;;7.90;99.90;;;;;;5009273;28;20151;-86
2022/03/24 07:47:19;;;;;;;82.35;52.13;;;7.90;99.90;;;;;;4992764;28;20649;-86
2022/03/24 07:49:46;;;;;;;75.57;49.13;;;8.00;99.90;;;;;;4976621;28;20117;-86
2022/03/24 07:52:13;;;;;;;72.95;46.58;;;8.10;99.90;;;;;;4986870;28;20034;-86
2022/03/24 07:54:58;;;;;;;73.07;49.42;;;8.20;99.90;;;;;;4995852;28;20038;-86
2022/03/24 07:57:26;;;;;;;82.97;50.55;;;8.30;99.90;;;;;;4996397;28;20026;-86
2022/03/24 07:59:52;;;;;;;79.68;49.65;;;8.30;99.90;;;;;;4992591;28;20054;-86
2022/03/24 08:02:17;;;;;;;73.82;48.03;;;8.40;99.90;;;;;;4991748;28;20038;-86
2022/03/24 08:04:44;;;;;;;70.00;45.67;;;8.50;99.90;;;;;;4993060;28;20519;-86
2022/03/24 08:07:09;;;;;;;69.95;45.92;;;8.60;99.90;;;;;;4993263;28;20074;-86
2022/03/24 08:09:35;;;;;;;71.68;47.10;;;8.70;99.90;;;;;;4993367;28;20085;-86
2022/03/24 08:12:00;;;;;;;80.55;49.33;;;8.70;99.90;;;;;;4992622;28;20046;-86
2022/03/24 08:14:26;;;;;;;75.88;50.70;;;8.90;99.90;;;;;;4993663;28;20572;-86
2022/03/24 08:16:52;;;;;;;87.05;53.70;;;9.10;99.90;;;;;;4993789;28;20038;-86
2022/03/24 08:19:18;;;;;;;82.75;54.00;;;9.10;99.90;;;;;;4992541;28;20042;-87
2022/03/24 08:21:43;;;;;;;80.55;52.92;;;9.20;99.90;;;;;;4992441;28;20046;-86
2022/03/24 08:24:09;;;;;;;81.47;53.22;;;9.30;99.90;;;;;;4992532;28;20069;-86
2022/03/24 08:26:38;;;;;;;84.22;53.75;;;9.50;99.90;;;;;;4994795;28;20043;-86
2022/03/24 08:29:04;;;;;;;86.80;53.08;;;9.60;99.90;;;;;;4994549;28;20397;-86
2022/03/24 08:31:30;;;;;;;85.07;54.55;;;9.70;99.90;;;;;;4993349;28;20042;-86
2022/03/24 08:33:56;;;;;;;83.13;53.75;;;9.80;99.90;;;;;;4993166;28;20038;-86
2022/03/24 08:36:22;;;;;;;81.55;51.95;;;9.90;99.90;;;;;;4993298;28;20042;-86
2022/03/24 08:38:47;;;;;;;77.90;50.05;;;10.00;99.90;;;;;;4993270;28;20042;-86
2022/03/24 08:41:13;;;;;;;79.82;51.22;;;10.10;99.90;;;;;;4994435;28;20463;-86
2022/03/24 08:43:39;;;;;;;76.47;49.63;;;10.20;99.90;;;;;;4993319;28;20117;-87
2022/03/24 08:46:06;;;;;;;75.60;48.00;;;10.30;99.90;;;;;;4994158;28;20503;-86
2022/03/24 08:48:32;;;;;;;78.47;50.88;;;10.50;99.90;;;;;;4991587;28;20046;-87
2022/03/24 08:50:58;;;;;;;77.07;49.20;;;10.50;99.90;;;;;;4992942;28;20042;-86
2022/03/24 08:53:23;;;;;;;76.68;50.50;;;10.70;99.90;;;;;;4991736;28;20069;-87
2022/03/24 10:06:18;;;;;;;60.22;40.45;;;14.60;99.90;;;;;;4991582;28;20118;-88
2022/03/24 10:08:50;;;;;;;62.80;41.17;;;14.80;99.90;;;;;;4991182;28;20050;-88
2022/03/24 10:11:15;;;;;;;65.55;41.10;;;15.00;99.90;;;;;;4991903;28;20038;-88
2022/03/24 10:13:45;;;;;;;57.28;38.88;;;15.10;99.90;;;;;;4992864;28;20456;-88
2022/03/24 10:16:32;;;;;;;61.47;40.63;;;15.20;99.90;;;;;;4991471;28;20038;-88
2022/03/24 10:19:19;;;;;;;63.97;40.70;;;15.40;99.90;;;;;;4991535;28;20053;-88
2022/03/24 10:21:48;;;;;;;61.83;41.45;;;15.50;99.90;;;;;;4974983;28;20062;-89
2022/03/24 10:24:22;;;;;;;58.90;38.13;;;15.60;99.90;;;;;;4991133;28;20043;-88
2022/03/24 10:26:49;;;;;;;;;;;15.60;99.90;;;;;;4991926;28;20050;-88
2022/03/24 10:29:21;;;;;;;61.38;40.08;;;15.60;98.90;;;;;;4991413;28;19921;-88
2022/03/24 10:31:56;;;;;;;54.50;37.05;;;15.50;99.90;;;;;;5008195;28;20404;-88
2022/03/24 10:34:34;;;;;;;56.60;39.22;;;15.70;99.90;;;;;;4992344;28;20045;-88
2022/03/24 10:37:05;;;;;;;54.30;39.25;;;15.80;99.90;;;;;;5007621;28;20117;-87
2022/03/24 10:39:32;;;;;;;54.22;39.50;;;15.90;99.90;;;;;;5007624;28;20050;-88
2022/03/24 10:42:18;;;;;;;62.25;40.97;;;16.00;99.90;;;;;;4991405;28;20157;-87
2022/03/24 10:45:07;;;;;;;62.25;41.58;;;16.20;99.90;;;;;;4990983;28;20455;-88
2022/03/24 10:47:40;;;;;;;51.80;37.25;;;16.40;99.90;;;;;;4992144;28;20034;-87
2022/03/24 10:50:40;;;;;;;54.60;36.83;;;16.40;99.90;;;;;;4992367;28;20061;-87
2022/03/24 10:53:15;;;;;;;56.67;37.97;;;16.40;99.10;;;;;;4990875;28;20047;-87
2022/03/24 10:55:44;;;;;;;63.35;39.78;;;16.40;97.30;;;;;;4992009;28;20412;-87
2022/03/24 10:58:22;;;;;;;54.83;38.38;;;16.50;99.90;;;;;;4990909;28;20527;-87
2022/03/24 11:00:51;;;;;;;54.58;38.17;;;16.60;99.90;;;;;;5007246;28;20046;-87
2022/03/24 11:03:17;;;;;;;50.90;34.28;;;16.70;99.90;;;;;;4990951;28;20496;-87
2022/03/24 11:05:43;;;;;;;54.17;35.55;;;16.70;98.70;;;;;;4990892;28;20060;-87
2022/03/24 11:08:09;;;;;;;53.72;33.28;;;16.60;98.40;;;;;;4990682;28;20046;-87
2022/03/24 11:10:49;;;;;;;53.28;33.53;;;16.70;98.00;;;;;;4994433;28;20041;-87
2022/03/24 11:13:27;;;;;;;51.15;33.55;;;16.70;95.10;;;;;;4990936;28;20047;-87
2022/03/24 11:15:53;;;;;;;47.42;32.83;;;16.70;96.40;;;;;;4990622;28;20051;-87
2022/03/24 11:18:21;;;;;;;45.78;31.67;;;16.80;96.70;;;;;;4991936;28;20055;-87
2022/03/24 11:20:49;;;;;;;43.75;31.58;;;16.80;96.20;;;;;;5007055;28;20166;-86
2022/03/24 11:23:24;;;;;;;47.30;30.17;;;16.80;95.70;;;;;;5007046;28;20050;-86
2022/03/24 11:25:53;;;;;;;44.47;31.00;;;17.00;96.00;;;;;;4990845;28;20083;-87
2022/03/24 11:28:25;;;;;;;50.42;33.42;;;17.00;95.60;;;;;;4990400;28;20058;-86
2022/03/24 11:30:52;;;;;;;47.72;32.28;;;17.30;96.30;;;;;;4990862;28;20049;-86
2022/03/24 11:33:18;;;;;;;46.05;31.90;;;17.50;96.40;;;;;;4991735;28;20046;-87
2022/03/24 11:35:44;;;;;;;45.13;31.95;;;17.80;96.30;;;;;;4990153;28;20088;-87
2022/03/24 11:38:10;;;;;;;45.03;29.88;;;17.90;93.70;;;;;;4990465;28;20495;-86
2022/03/24 11:40:36;;;;;;;41.03;29.13;;;17.90;94.90;;;;;;4974792;28;20332;-86
2022/03/24 11:43:09;;;;;;;45.45;30.70;;;17.80;93.00;;;;;;4969363;28;20046;-86
2022/03/24 11:45:54;;;;;;;42.30;28.08;;;17.70;92.10;;;;;;4970317;28;20521;-85
2022/03/24 11:48:39;;;;;;;41.50;28.98;;;17.50;90.70;;;;;;4970653;28;20087;-86
2022/03/24 11:51:14;;;;;;;46.17;29.10;;;17.60;91.70;;;;;;4969476;28;20045;-86
2022/03/24 11:53:40;;;;;;;43.90;29.67;;;17.60;91.70;;;;;;4970332;28;20481;-85
2022/03/24 11:56:06;;;;;;;45.28;29.40;;;17.80;91.90;;;;;;4973712;28;20049;-85
2022/03/24 11:58:34;;;;;;;45.20;30.52;;;17.90;91.70;;;;;;4974719;28;20131;-85
2022/03/24 12:01:18;;;;;;;45.83;31.23;;;17.90;91.80;;;;;;4974375;28;20039;-85
2022/03/24 12:03:50;;;;;;;48.13;30.83;;;17.80;90.60;;;;;;4974298;28;20047;-85
2022/03/24 12:06:18;;;;;;;44.03;31.27;;;17.70;90.60;;;;;;4975543;28;20409;-85
2022/03/24 12:08:47;;;;;;;44.30;32.40;;;17.90;91.20;;;;;;4975399;28;20097;-85
2022/03/24 12:11:31;;;;;;;53.92;35.72;;;18.00;91.60;;;;;;4975412;28;20085;-85
2022/03/24 12:13:59;;;;;;;46.70;33.53;;;18.30;91.80;;;;;;4973807;28;20134;-85
2022/03/24 12:16:27;;;;;;;46.97;34.15;;;18.50;90.90;;;;;;4975448;28;20489;-85
2022/03/24 12:18:53;;;;;;;48.75;35.38;;;18.50;90.90;;;;;;4973980;28;20038;-85
2022/03/24 12:21:30;;;;;;;50.30;36.40;;;18.50;91.30;;;;;;4973988;28;20420;-85
2022/03/24 12:24:09;;;;;;;48.72;34.15;;;18.80;91.40;;;;;;4973839;28;20515;-83
2022/03/24 12:26:47;;;;;;;45.10;33.55;;;18.90;91.90;;;;;;4973846;28;20051;-83
2022/03/24 12:29:27;;;;;;;48.15;33.63;;;19.00;90.30;;;;;;4976796;28;20035;-83
2022/03/24 12:32:03;;;;;;;46.58;33.95;;;19.10;90.10;;;;;;4988055;28;20034;-83
2022/03/24 12:34:38;;;;;;;50.50;33.75;;;19.40;90.70;;;;;;4992891;28;20042;-85
2022/03/24 12:37:07;;;;;;;49.63;31.75;;;19.60;90.10;;;;;;4993429;28;20396;-85
2022/03/24 12:39:38;;;;;;;40.55;28.65;;;19.80;90.30;;;;;;4993526;28;20133;-85
2022/03/24 12:42:12;;;;;;;41.45;29.95;;;19.50;86.20;;;;;;4994650;28;20042;-85
2022/03/24 12:44:58;;;;;;;43.47;30.27;;;19.10;85.10;;;;;;4993205;28;20496;-85
2022/03/24 12:47:46;;;;;;;39.40;27.98;;;19.00;85.20;;;;;;4994287;28;20492;-83
2022/03/24 12:50:20;;;;;;;41.92;26.73;;;18.60;82.00;;;;;;4994161;28;20046;-83
2022/03/24 12:52:56;;;;;;;41.03;27.65;;;18.50;81.90;;;;;;4992643;28;20065;-83
2022/03/24 12:55:33;;;;;;;42.38;27.92;;;18.70;83.70;;;;;;4993654;28;20377;-83
2022/03/24 12:58:04;;;;;;;36.67;24.30;;;18.70;83.40;;;;;;4994112;28;20046;-83
2022/03/24 13:00:35;;;;;;;38.78;24.80;;;18.70;79.60;;;;;;4994316;28;20034;-83
2022/03/24 13:03:04;;;;;;;39.28;25.80;;;18.60;80.70;;;;;;4994704;28;20030;-83
2022/03/24 13:05:31;;;;;;;37.13;26.15;;;18.30;78.50;;;;;;4991758;28;20177;-83
2022/03/24 13:07:59;;;;;;;35.83;24.67;;;18.50;79.40;;;;;;4994534;28;20397;-82
2022/03/24 13:10:31;;;;;;;37.55;24.65;;;18.60;79.10;;;;;;5006166;28;20038;-83
2022/03/24 13:13:00;;;;;;;36.88;24.27;;;18.60;75.70;;;;;;4992023;28;20038;-83
2022/03/24 13:15:27;;;;;;;39.10;24.88;;;19.00;78.80;;;;;;4972191;28;20044;-83
2022/03/24 13:17:55;;;;;;;41.47;28.38;;;19.40;79.00;;;;;;4982014;28;20043;-83
2022/03/24 13:20:26;;;;;;;38.28;27.42;;;19.10;76.60;;;;;;4986105;28;20054;-83
2022/03/24 13:22:53;;;;;;;36.55;28.80;;;19.10;76.50;;;;;;4989851;28;20488;-82
2022/03/24 13:25:21;;;;;;;39.53;28.08;;;19.20;77.80;;;;;;4986645;28;20521;-83
2022/03/24 13:27:50;;;;;;;44.15;29.42;;;19.40;77.50;;;;;;4989761;28;20042;-83
2022/03/24 13:30:18;;;;;;;42.50;29.52;;;19.30;76.30;;;;;;4986320;28;20038;-83
2022/03/24 13:32:46;;;;;;;42.72;31.23;;;19.00;75.70;;;;;;4988755;28;20137;-83
2022/03/24 13:35:15;;;;;;;43.78;30.25;;;18.90;77.40;;;;;;4990188;28;20042;-85
2022/03/24 13:37:51;;;;;;;43.45;30.73;;;18.90;77.50;;;;;;4997313;28;20041;-85
2022/03/24 13:40:20;;;;;;;44.47;30.95;;;18.80;76.20;;;;;;4998278;28;20034;-85
2022/03/24 13:42:47;;;;;;;43.00;31.80;;;18.90;77.10;;;;;;4991587;28;20034;-84
2022/03/24 13:45:14;;;;;;;43.28;32.83;;;19.20;78.20;;;;;;4991834;28;20038;-85
2022/03/24 13:47:43;;;;;;;49.17;34.05;;;19.40;77.70;;;;;;4991153;28;20685;-83
2022/03/24 13:50:10;;;;;;;48.28;34.20;;;19.30;76.90;;;;;;4990388;28;20061;-83
2022/03/24 13:52:40;;;;;;;44.25;33.17;;;19.30;76.90;;;;;;4990100;28;20100;-83
2022/03/24 13:55:16;;;;;;;47.97;36.33;;;19.30;77.50;;;;;;4987724;28;20057;-83